Core, West Virginia
Current Conditions -  °F | °C
As of 2:53 PM on Sunday 21 Dec 2014 (Local Time) from KMGW Reporting Station
Clear Clear  
Wind Chill:   Ceiling: Unl
Heat Index:   Visibility: 10mi
Dew Point: -6°   Wind: 0mph
Humidity: 50%   Direction: NA
Pressure: 30.22"   Gusts: NA
Location:  39.68°N, 80.11°W
Report Text: KMGW 211953Z 00000KT 10SM CLR 04/M06 A3022 RMK AO2 SLP243 T00391056
Loading
Personal Weather Stations






























Interactive Weather Map New forecast layout! Learn more

10-Day Weather Forecast

Advertisements
Track Severe Weather on mobile